Time;durP1;ratioP1;P1;durP2;ratioP2;P2;SDS_P1;SDS_P2;PMS_P1;PMS_P2;Temp;Humidity;BMP_temperature;BMP_pressure;BME280_temperature;BME280_humidity;BME280_pressure;Samples;Min_cycle;Max_cycle;Signal;HPM_P1;HPM_P2
2023/04/11 00:02:14;;;;;;;14.95;3.15;;;;;;;;;;5051068;28;20084;-55
2023/04/11 00:04:41;;;;;;;17.83;3.83;;;;;;;;;;5065014;28;20794;-53
2023/04/11 00:07:08;;;;;;;29.75;3.42;;;;;;;;;;5055807;28;20459;-54
2023/04/11 00:09:34;;;;;;;15.65;3.45;;;;;;;;;;5049631;28;20506;-51
2023/04/11 00:12:01;;;;;;;20.50;3.63;;;;;;;;;;5064949;28;20562;-53
2023/04/11 00:14:31;;;;;;;18.27;3.10;;;;;;;;;;5062698;28;20100;-54
2023/04/11 00:16:59;;;;;;;21.48;3.72;;;;;;;;;;5059423;28;20078;-55
2023/04/11 00:19:27;;;;;;;25.30;3.38;;;;;;;;;;5053792;28;20168;-51
2023/04/11 00:22:00;;;;;;;19.10;3.08;;;;;;;;;;5063210;28;20140;-54
2023/04/11 00:24:26;;;;;;;23.45;4.15;;;;;;;;;;5057768;28;20134;-52
2023/04/11 00:26:53;;;;;;;31.20;5.13;;;;;;;;;;5051465;28;20160;-54
2023/04/11 00:29:19;;;;;;;36.42;5.07;;;;;;;;;;5058542;28;20049;-51
2023/04/11 00:31:46;;;;;;;18.77;3.97;;;;;;;;;;5063918;28;20493;-52
2023/04/11 00:34:12;;;;;;;22.15;4.32;;;;;;;;;;5064130;28;20059;-55
2023/04/11 00:36:40;;;;;;;31.33;5.13;;;;;;;;;;5064908;28;20049;-57
2023/04/11 00:39:07;;;;;;;24.80;4.25;;;;;;;;;;5063114;28;20143;-54
2023/04/11 00:41:34;;;;;;;25.98;4.90;;;;;;;;;;5061342;28;20565;-52
2023/04/11 00:44:00;;;;;;;20.20;4.07;;;;;;;;;;5055450;28;20053;-52
2023/04/11 00:46:27;;;;;;;33.60;6.05;;;;;;;;;;5044794;28;20084;-53
2023/04/11 00:48:53;;;;;;;26.85;4.72;;;;;;;;;;5062879;28;20515;-49
2023/04/11 00:51:21;;;;;;;22.35;4.57;;;;;;;;;;5068500;28;20080;-51
2023/04/11 00:53:47;;;;;;;29.00;5.07;;;;;;;;;;5064431;28;20082;-53
2023/04/11 00:56:13;;;;;;;29.63;5.55;;;;;;;;;;5051386;28;20084;-52
2023/04/11 00:58:40;;;;;;;27.00;4.13;;;;;;;;;;5065825;28;20096;-52
2023/04/11 01:01:09;;;;;;;26.02;5.78;;;;;;;;;;5057007;28;20447;-53
2023/04/11 01:03:37;;;;;;;33.80;5.35;;;;;;;;;;5059599;28;20077;-54
2023/04/11 01:06:11;;;;;;;23.60;4.60;;;;;;;;;;5059702;28;20061;-51
2023/04/11 01:08:39;;;;;;;24.17;3.58;;;;;;;;;;5063406;28;20049;-55
2023/04/11 01:11:06;;;;;;;33.03;5.32;;;;;;;;;;5061324;28;20053;-52
2023/04/11 01:13:34;;;;;;;21.67;4.13;;;;;;;;;;5044604;28;20053;-53
2023/04/11 01:16:01;;;;;;;23.08;3.92;;;;;;;;;;5056335;28;20080;-52
2023/04/11 01:18:27;;;;;;;31.20;4.97;;;;;;;;;;5064433;28;20049;-54
2023/04/11 01:20:53;;;;;;;17.77;3.67;;;;;;;;;;5050810;28;20109;-56
2023/04/11 01:23:23;;;;;;;25.70;4.07;;;;;;;;;;5060794;28;20059;-52
2023/04/11 01:25:49;;;;;;;18.20;3.25;;;;;;;;;;5061796;28;20049;-53
2023/04/11 01:28:19;;;;;;;15.13;3.60;;;;;;;;;;5060973;28;20585;-54
2023/04/11 01:30:45;;;;;;;17.10;3.10;;;;;;;;;;5061151;28;20049;-56
2023/04/11 01:33:12;;;;;;;15.93;2.55;;;;;;;;;;5063074;28;20136;-51
2023/04/11 01:35:39;;;;;;;20.63;3.08;;;;;;;;;;5064310;28;20060;-53
2023/04/11 01:38:05;;;;;;;14.30;2.78;;;;;;;;;;5060890;28;20053;-52
2023/04/11 01:40:32;;;;;;;9.52;1.73;;;;;;;;;;5048626;28;20065;-55
2023/04/11 01:43:00;;;;;;;11.23;2.40;;;;;;;;;;5062973;28;20511;-52
2023/04/11 01:45:27;;;;;;;12.30;2.28;;;;;;;;;;5063180;28;20049;-51
2023/04/11 01:47:54;;;;;;;6.93;1.27;;;;;;;;;;5056619;28;20491;-56
2023/04/11 01:50:21;;;;;;;6.80;1.70;;;;;;;;;;5059931;28;20061;-56
2023/04/11 01:52:48;;;;;;;9.20;2.08;;;;;;;;;;5050747;28;20534;-54
2023/04/11 01:55:14;;;;;;;4.88;1.25;;;;;;;;;;5063082;28;20946;-55
2023/04/11 01:57:40;;;;;;;5.00;1.30;;;;;;;;;;5052647;28;20530;-55
2023/04/11 02:00:10;;;;;;;9.25;2.08;;;;;;;;;;5064237;28;20060;-55
2023/04/11 02:02:36;;;;;;;8.15;1.55;;;;;;;;;;5053370;28;20049;-56
2023/04/11 02:05:03;;;;;;;10.32;1.63;;;;;;;;;;5049895;28;20064;-52
2023/04/11 02:07:30;;;;;;;5.97;1.60;;;;;;;;;;5062308;28;20049;-54
2023/04/11 02:09:56;;;;;;;5.78;1.60;;;;;;;;;;5061997;28;20521;-55
2023/04/11 02:12:23;;;;;;;11.65;2.25;;;;;;;;;;5048265;28;20526;-53
2023/04/11 02:14:49;;;;;;;10.02;1.50;;;;;;;;;;5064232;28;20079;-54
2023/04/11 02:17:17;;;;;;;9.30;2.42;;;;;;;;;;5063788;28;20857;-54
2023/04/11 02:19:44;;;;;;;6.88;1.58;;;;;;;;;;5059265;28;20049;-54
2023/04/11 02:22:11;;;;;;;7.40;1.70;;;;;;;;;;5058894;28;20134;-55
2023/04/11 02:24:37;;;;;;;7.28;3.10;;;;;;;;;;5056088;28;20059;-54
2023/04/11 02:27:04;;;;;;;15.27;2.05;;;;;;;;;;5050833;28;20132;-54
2023/04/11 02:29:30;;;;;;;5.82;1.23;;;;;;;;;;5064137;28;20055;-54
2023/04/11 02:31:57;;;;;;;7.05;1.25;;;;;;;;;;5067295;28;20055;-54
2023/04/11 02:34:24;;;;;;;8.27;1.98;;;;;;;;;;5064960;28;20160;-52
2023/04/11 02:36:50;;;;;;;19.83;3.08;;;;;;;;;;5056023;28;20054;-54
2023/04/11 02:39:18;;;;;;;6.32;1.05;;;;;;;;;;5057165;28;20056;-55
2023/04/11 02:41:44;;;;;;;14.98;1.70;;;;;;;;;;5059866;28;20084;-56
2023/04/11 02:44:10;;;;;;;11.38;1.73;;;;;;;;;;5059963;28;20065;-55
2023/04/11 02:46:37;;;;;;;11.65;1.50;;;;;;;;;;5065882;28;20052;-57
2023/04/11 02:49:03;;;;;;;8.38;1.70;;;;;;;;;;5053819;28;20060;-51
2023/04/11 02:51:30;;;;;;;5.53;1.27;;;;;;;;;;5063581;28;20052;-53
2023/04/11 02:53:56;;;;;;;11.93;2.33;;;;;;;;;;5057063;28;20046;-55
2023/04/11 02:56:22;;;;;;;6.53;1.35;;;;;;;;;;5055890;28;20115;-55
2023/04/11 02:58:51;;;;;;;8.05;1.80;;;;;;;;;;5065852;28;20095;-52
2023/04/11 03:01:18;;;;;;;9.90;1.65;;;;;;;;;;5046687;28;20633;-51
2023/04/11 03:03:44;;;;;;;4.82;1.33;;;;;;;;;;5049534;28;20491;-56
2023/04/11 03:06:11;;;;;;;6.50;1.38;;;;;;;;;;5059277;28;20073;-51
2023/04/11 03:08:38;;;;;;;7.47;1.92;;;;;;;;;;5064899;28;20088;-55
2023/04/11 03:11:05;;;;;;;7.30;1.13;;;;;;;;;;5060154;28;20053;-53
2023/04/11 03:13:31;;;;;;;7.13;1.50;;;;;;;;;;5062560;28;20508;-55
2023/04/11 03:15:58;;;;;;;6.68;1.33;;;;;;;;;;5069856;28;20056;-54
2023/04/11 03:18:25;;;;;;;9.48;1.40;;;;;;;;;;5065865;28;20060;-53
2023/04/11 03:20:51;;;;;;;4.97;1.30;;;;;;;;;;5066486;28;20053;-55
2023/04/11 03:23:17;;;;;;;9.32;1.77;;;;;;;;;;5065846;28;20084;-53
2023/04/11 03:25:44;;;;;;;11.02;1.75;;;;;;;;;;5064134;28;20041;-56
2023/04/11 03:28:10;;;;;;;10.63;1.52;;;;;;;;;;5064829;28;20045;-53
2023/04/11 03:30:39;;;;;;;5.90;1.80;;;;;;;;;;5060179;28;20148;-53
2023/04/11 03:33:06;;;;;;;11.98;2.40;;;;;;;;;;5065140;28;20127;-54
2023/04/11 03:35:32;;;;;;;14.38;2.25;;;;;;;;;;5058544;28;20064;-55
2023/04/11 03:37:59;;;;;;;8.27;2.47;;;;;;;;;;5057058;28;20099;-53
2023/04/11 03:40:25;;;;;;;9.38;1.65;;;;;;;;;;5065108;28;20499;-56
2023/04/11 03:42:52;;;;;;;9.57;2.15;;;;;;;;;;5064145;28;20061;-55
2023/04/11 03:45:18;;;;;;;6.20;1.60;;;;;;;;;;5058283;28;20068;-51
2023/04/11 03:47:44;;;;;;;7.90;1.77;;;;;;;;;;5063336;28;20049;-54
2023/04/11 03:50:11;;;;;;;6.32;1.20;;;;;;;;;;5063810;28;20044;-56
2023/04/11 03:52:37;;;;;;;8.95;1.35;;;;;;;;;;5065267;28;20052;-55
2023/04/11 03:55:04;;;;;;;9.48;1.88;;;;;;;;;;5064910;28;20140;-50
2023/04/11 03:57:31;;;;;;;6.45;1.33;;;;;;;;;;5059273;28;20053;-54
2023/04/11 03:59:57;;;;;;;3.95;1.23;;;;;;;;;;5056843;28;20419;-53
2023/04/11 04:02:24;;;;;;;7.75;2.45;;;;;;;;;;5059749;28;20518;-50
2023/04/11 04:04:54;;;;;;;9.85;1.80;;;;;;;;;;5054106;28;20140;-52
2023/04/11 04:07:23;;;;;;;7.25;1.30;;;;;;;;;;5064816;28;20140;-50
2023/04/11 04:09:49;;;;;;;11.52;1.70;;;;;;;;;;5060432;28;20061;-50
2023/04/11 04:12:18;;;;;;;6.97;1.45;;;;;;;;;;5063090;28;20103;-52
2023/04/11 04:14:45;;;;;;;12.70;1.77;;;;;;;;;;5059247;28;20045;-52
2023/04/11 04:17:12;;;;;;;10.02;1.92;;;;;;;;;;5065978;28;20601;-52
2023/04/11 04:19:38;;;;;;;10.57;1.77;;;;;;;;;;5064725;28;20051;-54
2023/04/11 04:22:10;;;;;;;9.18;1.60;;;;;;;;;;5057968;28;20427;-54
2023/04/11 04:24:38;;;;;;;11.00;1.27;;;;;;;;;;5065001;28;20535;-54
2023/04/11 04:27:07;;;;;;;8.00;1.60;;;;;;;;;;5047709;28;20539;-54
2023/04/11 04:29:37;;;;;;;10.98;1.80;;;;;;;;;;5049451;28;20053;-56
2023/04/11 04:32:09;;;;;;;7.20;2.00;;;;;;;;;;5063686;28;20057;-51
2023/04/11 04:34:48;;;;;;;9.07;1.30;;;;;;;;;;5064331;28;20045;-52
2023/04/11 04:37:21;;;;;;;11.68;1.58;;;;;;;;;;5058805;28;20060;-55
2023/04/11 04:39:49;;;;;;;17.67;1.75;;;;;;;;;;5063996;28;20088;-51
2023/04/11 04:42:16;;;;;;;7.90;1.33;;;;;;;;;;5075759;28;20613;-51
2023/04/11 04:44:42;;;;;;;4.80;1.52;;;;;;;;;;5054674;28;20140;-53
2023/04/11 04:47:09;;;;;;;7.93;2.40;;;;;;;;;;5058852;28;20543;-54
2023/04/11 04:49:35;;;;;;;4.38;1.65;;;;;;;;;;5060263;28;20053;-55
2023/04/11 04:52:01;;;;;;;7.45;2.05;;;;;;;;;;5065081;28;20053;-49
2023/04/11 04:54:30;;;;;;;8.93;2.38;;;;;;;;;;5064937;28;20088;-52
2023/04/11 04:56:56;;;;;;;6.82;1.40;;;;;;;;;;5064042;28;20087;-50
2023/04/11 04:59:23;;;;;;;11.18;2.20;;;;;;;;;;5063995;28;20132;-55
2023/04/11 05:01:50;;;;;;;9.30;1.75;;;;;;;;;;5062193;28;20053;-55
2023/04/11 05:04:16;;;;;;;5.07;1.25;;;;;;;;;;5058538;28;20511;-53
2023/04/11 05:06:43;;;;;;;3.90;1.10;;;;;;;;;;5061722;28;20049;-55
2023/04/11 05:09:09;;;;;;;7.88;1.50;;;;;;;;;;5061167;28;20060;-55
2023/04/11 05:11:36;;;;;;;7.55;1.70;;;;;;;;;;5053019;28;20059;-53
2023/04/11 05:14:02;;;;;;;5.55;1.60;;;;;;;;;;5069990;28;20052;-54
2023/04/11 05:16:28;;;;;;;11.57;2.28;;;;;;;;;;5063429;28;20064;-52
2023/04/11 05:18:55;;;;;;;5.95;1.85;;;;;;;;;;5064680;28;20056;-55
2023/04/11 05:21:21;;;;;;;6.43;1.10;;;;;;;;;;5063026;28;20053;-52
2023/04/11 05:23:47;;;;;;;7.47;1.33;;;;;;;;;;5065935;28;20057;-56
2023/04/11 05:26:14;;;;;;;3.60;1.50;;;;;;;;;;5064689;28;20520;-55
2023/04/11 05:28:41;;;;;;;9.07;1.50;;;;;;;;;;5066874;28;20106;-53
2023/04/11 05:31:07;;;;;;;6.22;1.27;;;;;;;;;;5072646;28;20503;-53
2023/04/11 05:33:37;;;;;;;5.22;1.33;;;;;;;;;;5064288;28;20140;-53
2023/04/11 05:36:03;;;;;;;9.45;1.63;;;;;;;;;;5063960;28;20077;-51
2023/04/11 05:38:32;;;;;;;5.53;1.10;;;;;;;;;;5064768;28;20700;-51
2023/04/11 05:40:58;;;;;;;6.63;1.30;;;;;;;;;;5069078;28;20514;-51
2023/04/11 05:43:25;;;;;;;8.57;1.55;;;;;;;;;;5074735;28;20060;-53
2023/04/11 05:45:51;;;;;;;4.55;1.30;;;;;;;;;;5064324;28;20049;-55
2023/04/11 05:48:21;;;;;;;7.95;1.67;;;;;;;;;;5063639;28;20049;-55
2023/04/11 05:50:51;;;;;;;7.40;1.38;;;;;;;;;;5063927;28;20053;-56
2023/04/11 05:53:17;;;;;;;9.82;1.58;;;;;;;;;;5066214;28;20064;-55
2023/04/11 05:55:44;;;;;;;6.28;1.85;;;;;;;;;;5066484;28;20148;-55
2023/04/11 05:58:10;;;;;;;5.97;1.35;;;;;;;;;;5062926;28;20069;-55
2023/04/11 06:00:37;;;;;;;6.25;1.27;;;;;;;;;;5075558;28;20307;-52
2023/04/11 06:03:04;;;;;;;7.03;1.20;;;;;;;;;;5072876;28;20498;-56
2023/04/11 06:05:30;;;;;;;13.35;1.52;;;;;;;;;;5072765;28;20507;-53
2023/04/11 06:08:00;;;;;;;9.50;1.58;;;;;;;;;;5083173;28;20440;-54
2023/04/11 06:10:28;;;;;;;6.40;1.42;;;;;;;;;;5068677;28;20076;-54
2023/04/11 06:12:54;;;;;;;9.90;2.42;;;;;;;;;;5067054;28;20080;-55
2023/04/11 06:15:22;;;;;;;4.95;1.10;;;;;;;;;;5067696;28;20083;-55
2023/04/11 06:17:48;;;;;;;7.82;1.90;;;;;;;;;;5070402;28;20084;-52
2023/04/11 06:20:15;;;;;;;6.13;1.48;;;;;;;;;;5085304;28;20516;-54
2023/04/11 06:22:42;;;;;;;11.90;2.08;;;;;;;;;;5073267;28;20056;-56
2023/04/11 06:25:09;;;;;;;7.43;2.60;;;;;;;;;;5068753;28;20057;-49
2023/04/11 06:27:35;;;;;;;8.98;1.60;;;;;;;;;;5067446;28;20069;-55
2023/04/11 06:30:02;;;;;;;6.50;1.67;;;;;;;;;;5066668;28;20558;-54
2023/04/11 06:32:28;;;;;;;14.43;1.75;;;;;;;;;;5071336;28;20350;-53
2023/04/11 06:34:55;;;;;;;9.55;1.77;;;;;;;;;;5068127;28;20057;-56
2023/04/11 06:37:21;;;;;;;6.43;1.58;;;;;;;;;;5065109;28;20702;-54
2023/04/11 06:39:48;;;;;;;7.88;2.13;;;;;;;;;;5068818;28;20053;-54
2023/04/11 06:42:15;;;;;;;12.90;1.65;;;;;;;;;;5061093;28;20119;-55
2023/04/11 06:44:41;;;;;;;12.35;3.88;;;;;;;;;;5079242;28;20057;-55
2023/04/11 06:47:07;;;;;;;4.85;1.48;;;;;;;;;;5069562;28;20164;-51
2023/04/11 06:49:34;;;;;;;11.10;2.00;;;;;;;;;;5070687;28;20048;-55
2023/04/11 06:52:02;;;;;;;9.18;1.38;;;;;;;;;;5081679;28;20053;-54
2023/04/11 06:54:28;;;;;;;10.07;1.95;;;;;;;;;;5067010;28;20057;-51
2023/04/11 06:56:56;;;;;;;5.13;1.05;;;;;;;;;;5067298;28;20563;-56
2023/04/11 06:59:22;;;;;;;11.30;2.38;;;;;;;;;;5054945;28;20578;-55
2023/04/11 07:01:50;;;;;;;9.75;2.45;;;;;;;;;;5052610;28;20598;-55
2023/04/11 07:04:16;;;;;;;7.45;1.85;;;;;;;;;;5061869;28;20049;-56
2023/04/11 07:06:42;;;;;;;9.27;1.52;;;;;;;;;;5074747;28;20056;-51
2023/04/11 07:09:09;;;;;;;10.35;2.00;;;;;;;;;;5072230;28;20063;-55
2023/04/11 07:11:37;;;;;;;9.85;1.70;;;;;;;;;;5066974;28;20115;-55
2023/04/11 07:14:03;;;;;;;13.68;2.20;;;;;;;;;;5058976;28;20604;-55
2023/04/11 07:16:30;;;;;;;12.73;1.80;;;;;;;;;;5086718;28;20048;-56
2023/04/11 07:18:56;;;;;;;12.52;2.60;;;;;;;;;;5065771;28;20056;-56
2023/04/11 07:21:22;;;;;;;5.20;1.50;;;;;;;;;;5063661;28;20171;-56
2023/04/11 07:23:51;;;;;;;9.57;1.52;;;;;;;;;;5080561;28;20060;-54
2023/04/11 07:26:17;;;;;;;10.20;1.95;;;;;;;;;;5075694;28;20527;-54
2023/04/11 07:28:44;;;;;;;11.80;1.98;;;;;;;;;;5063986;28;20049;-55
2023/04/11 07:31:11;;;;;;;9.70;1.60;;;;;;;;;;5076874;28;20282;-54
2023/04/11 07:33:38;;;;;;;7.75;2.08;;;;;;;;;;5076044;28;20285;-53
2023/04/11 07:36:05;;;;;;;6.15;1.15;;;;;;;;;;5072363;28;20499;-53
2023/04/11 07:38:32;;;;;;;12.10;2.10;;;;;;;;;;5072877;28;20107;-57
2023/04/11 07:41:00;;;;;;;7.30;1.60;;;;;;;;;;5069437;28;20144;-55
2023/04/11 07:43:27;;;;;;;17.05;1.63;;;;;;;;;;5064164;28;20706;-57
2023/04/11 07:45:53;;;;;;;12.32;1.70;;;;;;;;;;5065303;28;20116;-54
2023/04/11 07:48:20;;;;;;;6.65;2.05;;;;;;;;;;5069613;28;20048;-57
2023/04/11 07:50:47;;;;;;;8.60;1.52;;;;;;;;;;5066602;28;20533;-57
2023/04/11 07:53:13;;;;;;;9.00;1.67;;;;;;;;;;5065989;28;20052;-56
2023/04/11 07:55:39;;;;;;;11.90;1.65;;;;;;;;;;5061619;28;20519;-56
2023/04/11 07:58:06;;;;;;;14.57;1.83;;;;;;;;;;5064911;28;20101;-56
2023/04/11 08:00:33;;;;;;;6.15;1.70;;;;;;;;;;5056031;28;20053;-56
2023/04/11 08:03:03;;;;;;;9.55;1.63;;;;;;;;;;5061965;28;20049;-55
2023/04/11 08:05:33;;;;;;;8.02;2.08;;;;;;;;;;5062954;28;20049;-56
2023/04/11 08:08:00;;;;;;;6.60;1.40;;;;;;;;;;5063712;28;20057;-57
2023/04/11 08:10:26;;;;;;;6.07;1.88;;;;;;;;;;5066578;28;20064;-55
2023/04/11 08:12:53;;;;;;;8.10;2.47;;;;;;;;;;5054953;28;20048;-55
2023/04/11 08:15:20;;;;;;;7.47;1.65;;;;;;;;;;5054080;28;20056;-56
2023/04/11 08:17:48;;;;;;;7.05;1.63;;;;;;;;;;5064613;28;20061;-58
2023/04/11 08:20:15;;;;;;;5.82;1.10;;;;;;;;;;5066060;28;20569;-58
2023/04/11 08:22:43;;;;;;;13.70;2.15;;;;;;;;;;5058613;28;20053;-55
2023/04/11 08:25:10;;;;;;;9.35;1.95;;;;;;;;;;5057915;28;20051;-56
2023/04/11 08:27:37;;;;;;;8.20;1.55;;;;;;;;;;5077292;28;20903;-53
2023/04/11 08:30:07;;;;;;;7.88;1.50;;;;;;;;;;5064501;28;20044;-56
2023/04/11 08:32:37;;;;;;;4.97;1.17;;;;;;;;;;5049438;28;20053;-55
2023/04/11 08:35:03;;;;;;;8.98;1.38;;;;;;;;;;5058094;28;20056;-57
2023/04/11 08:37:30;;;;;;;6.45;1.50;;;;;;;;;;5067198;28;20537;-54
2023/04/11 08:39:56;;;;;;;4.53;1.10;;;;;;;;;;5065296;28;20147;-55
2023/04/11 08:42:23;;;;;;;6.90;2.03;;;;;;;;;;5065835;28;20569;-54
2023/04/11 08:44:54;;;;;;;12.27;1.73;;;;;;;;;;5067065;28;20447;-55
2023/04/11 08:47:20;;;;;;;9.27;1.42;;;;;;;;;;5074832;28;20051;-56
2023/04/11 08:49:47;;;;;;;14.48;2.00;;;;;;;;;;5067433;28;20102;-54
2023/04/11 08:52:14;;;;;;;3.22;1.13;;;;;;;;;;5073919;28;20471;-56
2023/04/11 08:54:40;;;;;;;4.60;1.20;;;;;;;;;;5071871;28;20114;-55
2023/04/11 08:57:07;;;;;;;7.55;1.90;;;;;;;;;;5073680;28;20049;-54
2023/04/11 08:59:33;;;;;;;5.53;1.05;;;;;;;;;;5070164;28;20080;-53
2023/04/11 09:02:09;;;;;;;7.15;1.50;;;;;;;;;;5069585;28;20848;-52
2023/04/11 09:04:40;;;;;;;7.57;1.33;;;;;;;;;;5055277;28;20049;-56
2023/04/11 09:07:06;;;;;;;7.70;2.15;;;;;;;;;;5075438;28;20048;-56
2023/04/11 09:09:38;;;;;;;5.88;1.52;;;;;;;;;;5071804;28;20524;-56
2023/04/11 09:12:04;;;;;;;9.27;2.58;;;;;;;;;;5075461;28;20084;-55
2023/04/11 09:14:30;;;;;;;4.85;1.13;;;;;;;;;;5073630;28;20615;-55
2023/04/11 09:16:59;;;;;;;4.38;1.20;;;;;;;;;;5067129;28;20060;-56
2023/04/11 09:19:26;;;;;;;5.47;1.17;;;;;;;;;;5070401;28;20136;-55
2023/04/11 09:21:53;;;;;;;6.53;1.90;;;;;;;;;;5070432;28;20518;-53
2023/04/11 09:24:21;;;;;;;6.40;1.55;;;;;;;;;;5072690;28;20064;-55
2023/04/11 09:26:47;;;;;;;6.45;1.35;;;;;;;;;;5074864;28;20606;-53
2023/04/11 09:29:33;;;;;;;3.20;1.15;;;;;;;;;;5068811;28;20084;-56
2023/04/11 09:31:59;;;;;;;;;;;;;;;;;;5062178;28;20782;-54
2023/04/11 09:34:28;;;;;;;9.50;1.52;;;;;;;;;;5066009;28;44951;-56
2023/04/11 09:36:55;;;;;;;11.65;1.90;;;;;;;;;;5064375;28;20118;-52
2023/04/11 09:39:21;;;;;;;9.48;1.70;;;;;;;;;;5065344;28;20045;-56
2023/04/11 09:41:47;;;;;;;15.93;2.17;;;;;;;;;;5069579;28;20768;-55
2023/04/11 09:44:14;;;;;;;5.30;1.13;;;;;;;;;;5073522;28;20080;-55
2023/04/11 09:46:59;;;;;;;9.45;1.77;;;;;;;;;;5064158;28;20549;-56
2023/04/11 09:49:26;;;;;;;2.17;0.85;;;;;;;;;;5052018;28;20045;-56
2023/04/11 09:51:53;;;;;;;7.47;1.02;;;;;;;;;;5066363;28;20058;-54
2023/04/11 09:54:21;;;;;;;2.67;0.93;;;;;;;;;;5089944;28;20544;-52
2023/04/11 09:56:47;;;;;;;10.52;1.52;;;;;;;;;;5076180;28;20511;-55
2023/04/11 09:59:14;;;;;;;5.93;1.30;;;;;;;;;;5068520;28;20053;-54
2023/04/11 10:01:41;;;;;;;6.50;1.55;;;;;;;;;;5074559;28;20049;-55
2023/04/11 10:04:09;;;;;;;8.00;1.52;;;;;;;;;;5057341;28;20526;-55
2023/04/11 10:06:58;;;;;;;5.82;1.10;;;;;;;;;;5054930;28;20057;-54
2023/04/11 10:09:26;;;;;;;9.50;1.48;;;;;;;;;;5074721;28;20056;-52
2023/04/11 10:11:52;;;;;;;4.63;1.30;;;;;;;;;;5069917;28;20139;-52
2023/04/11 10:14:37;;;;;;;5.47;1.05;;;;;;;;;;5079451;28;20131;-54
2023/04/11 10:17:16;;;;;;;3.40;1.02;;;;;;;;;;5070332;28;20060;-54
2023/04/11 10:19:49;;;;;;;3.80;1.17;;;;;;;;;;5067292;28;20519;-51
2023/04/11 10:22:34;;;;;;;9.80;1.40;;;;;;;;;;5079665;28;20060;-53
2023/04/11 10:25:20;;;;;;;8.95;1.73;;;;;;;;;;5063421;28;20476;-52
2023/04/11 10:27:48;;;;;;;5.07;1.30;;;;;;;;;;5054618;28;20123;-50
2023/04/11 10:30:14;;;;;;;7.55;1.10;;;;;;;;;;5068003;28;20053;-56
2023/04/11 10:33:01;;;;;;;4.50;0.88;;;;;;;;;;5075554;28;20087;-53
2023/04/11 10:35:28;;;;;;;6.28;1.88;;;;;;;;;;5066200;28;20106;-54
2023/04/11 10:37:55;;;;;;;6.40;1.08;;;;;;;;;;5065139;28;20053;-53
2023/04/11 10:40:23;;;;;;;4.45;1.05;;;;;;;;;;5068174;28;20139;-53
2023/04/11 10:42:49;;;;;;;7.22;1.42;;;;;;;;;;5073642;28;20061;-55
2023/04/11 10:45:20;;;;;;;6.43;1.20;;;;;;;;;;5067396;28;20053;-54
2023/04/11 10:47:50;;;;;;;5.38;0.80;;;;;;;;;;5065577;28;20052;-55
2023/04/11 10:50:26;;;;;;;7.90;1.50;;;;;;;;;;5077202;28;20052;-55
2023/04/11 10:52:55;;;;;;;4.75;1.20;;;;;;;;;;5080357;28;20529;-57
2023/04/11 10:55:22;;;;;;;4.10;1.23;;;;;;;;;;5072924;28;20083;-59
2023/04/11 10:58:08;;;;;;;3.83;1.02;;;;;;;;;;5063993;28;20110;-57
2023/04/11 11:00:50;;;;;;;5.95;1.38;;;;;;;;;;5072237;28;20083;-59
2023/04/11 11:03:17;;;;;;;8.30;1.50;;;;;;;;;;5070392;28;20052;-59
2023/04/11 11:05:43;;;;;;;6.03;1.48;;;;;;;;;;5058641;28;20060;-58
2023/04/11 11:08:10;;;;;;;8.63;1.65;;;;;;;;;;5065643;28;20069;-59
2023/04/11 11:10:37;;;;;;;4.82;1.17;;;;;;;;;;5073062;28;20656;-55
2023/04/11 11:13:04;;;;;;;5.72;1.20;;;;;;;;;;5070398;28;20048;-59
2023/04/11 11:15:37;;;;;;;7.38;1.63;;;;;;;;;;5064532;28;20060;-57
2023/04/11 11:18:04;;;;;;;4.55;1.42;;;;;;;;;;5072667;28;20080;-58
2023/04/11 11:20:31;;;;;;;4.35;1.38;;;;;;;;;;5070163;28;20053;-55
2023/04/11 11:23:01;;;;;;;2.17;0.77;;;;;;;;;;5063875;28;20056;-58
2023/04/11 11:25:28;;;;;;;8.10;1.38;;;;;;;;;;5068494;28;20553;-56
2023/04/11 11:28:02;;;;;;;5.15;0.95;;;;;;;;;;5070466;28;20064;-55
2023/04/11 11:30:28;;;;;;;5.00;1.58;;;;;;;;;;5076670;28;20507;-57
2023/04/11 11:32:55;;;;;;;3.78;0.95;;;;;;;;;;5067680;28;20061;-55
2023/04/11 11:35:23;;;;;;;7.80;1.55;;;;;;;;;;5062406;28;20057;-54
2023/04/11 11:37:52;;;;;;;4.72;1.27;;;;;;;;;;5068179;28;20057;-56
2023/04/11 11:40:21;;;;;;;7.07;1.60;;;;;;;;;;5063625;28;20594;-56
2023/04/11 11:42:50;;;;;;;6.18;1.50;;;;;;;;;;5057502;28;20053;-56
2023/04/11 11:45:18;;;;;;;5.05;1.20;;;;;;;;;;5061895;28;20843;-55
2023/04/11 11:47:45;;;;;;;5.65;1.42;;;;;;;;;;5062059;28;20049;-58
2023/04/11 11:50:25;;;;;;;3.60;1.10;;;;;;;;;;5060834;28;20111;-57
2023/04/11 11:52:51;;;;;;;4.60;1.88;;;;;;;;;;5062106;28;20061;-56
2023/04/11 11:55:18;;;;;;;3.75;1.40;;;;;;;;;;5064170;28;20775;-55
2023/04/11 11:57:45;;;;;;;8.55;1.33;;;;;;;;;;5069979;28;20048;-55
2023/04/11 12:00:12;;;;;;;6.70;1.15;;;;;;;;;;5057477;28;20058;-57
2023/04/11 12:02:40;;;;;;;6.03;1.35;;;;;;;;;;5055078;28;20175;-57
2023/04/11 12:05:09;;;;;;;2.28;1.00;;;;;;;;;;5050962;28;20132;-57
2023/04/11 12:07:36;;;;;;;5.43;1.40;;;;;;;;;;5050815;28;20653;-57
2023/04/11 12:10:07;;;;;;;5.53;1.42;;;;;;;;;;5054185;28;20059;-56
2023/04/11 12:12:43;;;;;;;5.93;1.23;;;;;;;;;;5068517;28;20127;-56
2023/04/11 12:15:19;;;;;;;;;;;;;;;;;;5069701;28;20051;-58
2023/04/11 12:17:50;;;;;;;7.90;1.80;;;;;;;;;;5075874;28;46635;-58
2023/04/11 12:20:20;;;;;;;4.53;1.40;;;;;;;;;;5061893;28;20419;-56
2023/04/11 12:22:46;;;;;;;9.30;1.10;;;;;;;;;;5059924;28;20517;-57
2023/04/11 12:25:13;;;;;;;4.05;1.10;;;;;;;;;;5063712;28;20049;-57
2023/04/11 12:27:40;;;;;;;4.45;1.15;;;;;;;;;;5060822;28;20064;-56
2023/04/11 12:30:08;;;;;;;10.07;1.63;;;;;;;;;;5064594;28;20053;-57
2023/04/11 12:32:35;;;;;;;7.38;1.67;;;;;;;;;;5078462;28;20146;-56
2023/04/11 12:35:02;;;;;;;3.38;1.27;;;;;;;;;;5067418;28;20053;-58
2023/04/11 12:37:29;;;;;;;6.43;1.75;;;;;;;;;;5069206;28;20052;-57
2023/04/11 12:39:55;;;;;;;8.68;2.15;;;;;;;;;;5064212;28;20666;-57
2023/04/11 12:42:22;;;;;;;8.48;1.65;;;;;;;;;;5067405;28;20072;-57
2023/04/11 12:44:52;;;;;;;5.10;1.33;;;;;;;;;;5056765;28;20615;-58
2023/04/11 12:47:18;;;;;;;6.03;1.67;;;;;;;;;;5052239;28;20378;-57
2023/04/11 12:49:45;;;;;;;6.10;1.50;;;;;;;;;;5055256;28;20083;-59
2023/04/11 12:52:11;;;;;;;8.20;1.67;;;;;;;;;;5060902;28;20553;-56
2023/04/11 12:54:37;;;;;;;6.78;1.35;;;;;;;;;;5047144;28;20594;-57
2023/04/11 12:57:04;;;;;;;5.25;1.30;;;;;;;;;;5056273;28;20709;-57
2023/04/11 12:59:31;;;;;;;3.78;1.10;;;;;;;;;;5060659;28;20053;-57
2023/04/11 13:01:57;;;;;;;4.47;1.38;;;;;;;;;;5060297;28;20083;-58
2023/04/11 13:04:24;;;;;;;4.50;1.20;;;;;;;;;;5060349;28;20056;-57
2023/04/11 13:06:51;;;;;;;4.97;1.25;;;;;;;;;;5064051;28;20106;-55
2023/04/11 13:09:18;;;;;;;8.73;1.85;;;;;;;;;;5061360;28;20181;-57
2023/04/11 13:11:44;;;;;;;7.38;1.45;;;;;;;;;;5060071;28;20516;-57
2023/04/11 13:14:10;;;;;;;4.90;1.58;;;;;;;;;;5061000;28;20060;-58
2023/04/11 13:16:37;;;;;;;5.35;1.23;;;;;;;;;;5060161;28;20110;-55
2023/04/11 13:19:03;;;;;;;9.98;1.27;;;;;;;;;;5061757;28;20057;-55
2023/04/11 13:21:31;;;;;;;6.72;1.40;;;;;;;;;;5067054;28;20083;-57
2023/04/11 13:23:57;;;;;;;7.38;1.70;;;;;;;;;;5072144;28;20598;-53
2023/04/11 13:26:24;;;;;;;7.97;1.50;;;;;;;;;;5062345;28;20523;-56
2023/04/11 13:28:50;;;;;;;7.00;1.77;;;;;;;;;;5079375;28;20494;-55
2023/04/11 13:31:18;;;;;;;5.20;1.58;;;;;;;;;;5062642;28;20574;-55
2023/04/11 13:33:46;;;;;;;9.38;1.70;;;;;;;;;;5062368;28;20072;-53
2023/04/11 13:36:13;;;;;;;7.50;2.10;;;;;;;;;;5062433;28;20049;-54
2023/04/11 13:38:39;;;;;;;9.57;1.85;;;;;;;;;;5079757;28;20455;-54
2023/04/11 13:41:06;;;;;;;5.90;1.38;;;;;;;;;;5057687;28;20047;-55
2023/04/11 13:43:32;;;;;;;6.13;1.30;;;;;;;;;;5065830;28;20053;-57
2023/04/11 13:45:59;;;;;;;6.70;1.25;;;;;;;;;;5059231;28;20483;-54
2023/04/11 13:48:25;;;;;;;2.67;0.80;;;;;;;;;;5077515;28;20474;-55
2023/04/11 13:50:56;;;;;;;6.35;1.25;;;;;;;;;;5063313;28;20053;-55
2023/04/11 13:53:22;;;;;;;6.38;1.70;;;;;;;;;;5060210;28;20144;-55
2023/04/11 13:55:50;;;;;;;3.58;1.00;;;;;;;;;;5064508;28;20506;-55
2023/04/11 13:58:16;;;;;;;6.57;1.42;;;;;;;;;;5071852;28;20064;-54
2023/04/11 14:00:46;;;;;;;3.17;1.83;;;;;;;;;;5043151;28;20160;-56
2023/04/11 14:03:12;;;;;;;5.93;1.25;;;;;;;;;;5070945;28;20553;-58
2023/04/11 14:05:39;;;;;;;4.53;1.35;;;;;;;;;;5064925;28;20136;-55
2023/04/11 14:08:06;;;;;;;5.47;1.25;;;;;;;;;;5070282;28;20125;-58
2023/04/11 14:10:32;;;;;;;7.65;1.77;;;;;;;;;;5074619;28;20081;-55
2023/04/11 14:13:02;;;;;;;3.28;1.08;;;;;;;;;;5063456;28;20527;-56
2023/04/11 14:15:30;;;;;;;7.53;1.48;;;;;;;;;;5063469;28;20171;-55
2023/04/11 14:17:56;;;;;;;9.60;1.30;;;;;;;;;;5060364;28;20148;-56
2023/04/11 14:20:24;;;;;;;5.80;1.83;;;;;;;;;;5060679;28;20053;-53
2023/04/11 14:22:50;;;;;;;5.63;1.30;;;;;;;;;;5064538;28;20562;-55
2023/04/11 14:25:17;;;;;;;5.55;1.27;;;;;;;;;;5075841;28;20144;-54
2023/04/11 14:27:43;;;;;;;2.95;1.20;;;;;;;;;;5064198;28;20080;-56
2023/04/11 14:30:11;;;;;;;5.20;1.38;;;;;;;;;;5062176;28;20156;-55
2023/04/11 14:32:38;;;;;;;7.40;1.27;;;;;;;;;;5055258;28;20605;-56
2023/04/11 14:35:06;;;;;;;7.30;1.42;;;;;;;;;;5046162;28;20107;-55
2023/04/11 14:37:36;;;;;;;4.50;1.17;;;;;;;;;;5063146;28;20111;-58
2023/04/11 14:40:04;;;;;;;6.13;1.27;;;;;;;;;;5063116;28;20085;-57
2023/04/11 14:42:30;;;;;;;3.95;0.90;;;;;;;;;;5061081;28;20053;-56
2023/04/11 14:44:57;;;;;;;4.10;1.02;;;;;;;;;;5063481;28;20060;-56